CheckWX is a tool to help pilots better visualize weather data.  It is not intended as a substitute for an official pre-flight weather briefing.

08:52:46 UTC

PAOM TAF
Nome Airport
Nome, Alaska, USA
PAOM 210535Z 2106/2206 36006KT P6SM BKN050 OVC070 FM211500 02008KT P6SM VCSH BKN025 OVC050 FM220300 02009KT 4SM -SN OVC025

Nov-21@
06:00 UTC

Nov-21 @ 06:00 UTC

Nov-21@
15:00 UTC

Nov-21 @ 15:00 UTC

PAOM 210535Z 2106/2206 36006KT P6SM BKN050 OVC070
Wind
  • 360° at 6 KTS
Cloud Levels
  • Broken at 5,000' AGL
  • Overcast at 7,000' AGL

Nov-21@
15:00 UTC

Nov-21 @ 15:00 UTC

Nov-22@
03:00 UTC

Nov-22 @ 03:00 UTC

FM211500 02008KT P6SM VCSH BKN025 OVC050

From

From Standard forecast or significant change

Wind
  • 020° at 8 KTS
Cloud Levels
  • Broken at 2,500' AGL
  • Overcast at 5,000' AGL

Nov-22@
03:00 UTC

Nov-22 @ 03:00 UTC

Nov-22@
06:00 UTC

Nov-22 @ 06:00 UTC

FM220300 02009KT 4SM -SN OVC025

From

From Standard forecast or significant change

Wind
  • 020° at 9 KTS
Conditions
Light Snow
Cloud Levels
  • Overcast at 2,500' AGL